PUUANAHULU HI US current weather conditions

sailwx.info

Wind from 325 at 10 knots gusting 24

Air temperature 23.9° C
Dewpoint 16.7° C

Last reported at 2016-Aug-29 02:37 UTC.
Time now 2016-Aug-29 03:45 UTC

Location: N 19°50' W 155°46'.
View on Google Maps.

See reports from other nearby stations

  
Tides and Currents Weather Stations Pressure Air Temp Water Temp Dewpoint Dewpoint Depression Visibility Wind Speed Wind Dir Waves Ship Positions
date/time (UTC)wind fromknots sea level pressurealtimeterstation pressurevisibilityair tempwater tempwave heightnotes
2016-Aug-29 02:37 325 10 gusting 24 23.9
2016-Aug-29 01:37 349 16 gusting 25 24.4
2016-Aug-29 00:37 329 6 gusting 18 26.1
2016-Aug-28 23:37 296 6 gusting 13 23.9
2016-Aug-28 22:37 274 6 gusting 12 23.3
2016-Aug-28 21:37 305 6 gusting 13 25.0
2016-Aug-28 20:37 310 8 gusting 13 25.0
2016-Aug-28 19:37 276 3 gusting 8 23.9
2016-Aug-28 18:37 218 5 gusting 10 22.8
2016-Aug-28 17:37 211 2 gusting 8 21.7
2016-Aug-28 16:37 131 6 gusting 10 17.8
2016-Aug-28 15:37 144 5 gusting 7 16.7
2016-Aug-28 14:37 166 4 gusting 7 17.8
2016-Aug-28 13:37 165 6 gusting 11 18.3
2016-Aug-28 12:37 169 6 gusting 12 17.2
2016-Aug-28 11:37 188 4 gusting 6 16.7
2016-Aug-28 10:37 135 2 gusting 6 17.2
2016-Aug-28 09:37 189 3 gusting 8 17.2
2016-Aug-28 08:37 172 6 gusting 7 17.8
2016-Aug-28 07:37 217 2 gusting 5 17.8
2016-Aug-28 06:37 282 1 gusting 6 18.9
2016-Aug-28 05:37 290 1 gusting 9 19.4
2016-Aug-28 04:37 353 6 gusting 14 21.1
2016-Aug-28 03:37 011 10 gusting 19 23.3
2016-Aug-28 02:37 008 7 gusting 13 22.8
2016-Aug-28 01:37 348 3 gusting 11 22.8
2016-Aug-28 00:37 293 7 gusting 15 24.4
2016-Aug-27 23:37 328 7 gusting 13 26.1
2016-Aug-27 22:37 315 8 gusting 18 26.1
2016-Aug-27 21:37 360 9 gusting 21 27.2
2016-Aug-27 20:37 352 13 gusting 20 25.6
2016-Aug-27 19:37 346 13 gusting 20 24.4
2016-Aug-27 18:37 286 3 gusting 6 23.9
2016-Aug-27 17:37 046 5 gusting 9 21.1
2016-Aug-27 16:37 134 4 gusting 8 17.2
2016-Aug-27 15:37 141 5 gusting 6 16.7
2016-Aug-27 14:37 136 3 gusting 5 17.2
2016-Aug-27 13:37 097 5 gusting 8 17.2
2016-Aug-27 12:37 131 3 gusting 7 17.8
2016-Aug-27 11:37 151 6 gusting 8 17.8
2016-Aug-27 10:37 141 4 gusting 6 17.2
2016-Aug-27 09:37 124 3 gusting 6 17.8
2016-Aug-27 08:37 167 4 gusting 7 18.3
2016-Aug-27 07:37 180 6 gusting 7 18.9
2016-Aug-27 06:37 245 3 gusting 6 18.9
2016-Aug-27 05:37 352 2 gusting 12 19.4
2016-Aug-27 04:37 023 9 gusting 19 21.1
2016-Aug-27 03:37 021 13 gusting 21 24.4